Time;durP1;ratioP1;P1;durP2;ratioP2;P2;SDS_P1;SDS_P2;PMS_P1;PMS_P2;Temp;Humidity;BMP_temperature;BMP_pressure;BME280_temperature;BME280_humidity;BME280_pressure;Samples;Min_cycle;Max_cycle;Signal;HPM_P1;HPM_P2
2022/12/06 00:01:58;;;;;;;21.75;13.38;;;;;;;4.53;100.00;101986.59;5106446;28;20074;-61
2022/12/06 00:04:23;;;;;;;22.55;14.30;;;;;;;4.54;100.00;101991.00;5105385;28;20118;-61
2022/12/06 00:06:50;;;;;;;23.23;14.18;;;;;;;4.53;100.00;101994.75;5105418;28;20024;-61
2022/12/06 00:09:24;;;;;;;24.45;14.82;;;;;;;4.52;100.00;101993.03;5105290;28;20061;-61
2022/12/06 00:11:50;;;;;;;23.67;14.20;;;;;;;4.53;100.00;101994.75;5106672;28;20089;-61
2022/12/06 00:14:16;;;;;;;21.83;13.70;;;;;;;4.54;100.00;101985.56;5105659;28;20039;-60
2022/12/06 00:16:41;;;;;;;21.88;14.50;;;;;;;4.53;100.00;101986.59;5105910;28;20020;-61
2022/12/06 00:19:08;;;;;;;21.15;13.57;;;;;;;4.54;100.00;101985.56;5106809;28;20031;-61
2022/12/06 00:21:35;;;;;;;22.38;14.05;;;;;;;4.53;100.00;101983.88;5105851;28;20390;-61
2022/12/06 00:24:03;;;;;;;23.38;14.05;;;;;;;4.52;100.00;101987.59;5103715;28;20032;-61
2022/12/06 00:26:29;;;;;;;21.52;14.52;;;;;;;4.53;100.00;101989.31;5109419;28;20032;-61
2022/12/06 00:28:57;;;;;;;21.52;13.88;;;;;;;4.53;100.00;101983.88;5110156;28;20035;-61
2022/12/06 00:31:24;;;;;;;22.90;15.35;;;;;;;4.51;100.00;101991.34;5109437;28;20042;-61
2022/12/06 00:33:50;;;;;;;22.73;13.13;;;;;;;4.52;100.00;101992.19;5109170;28;20027;-61
2022/12/06 00:36:37;;;;;;;22.10;14.77;;;;;;;4.52;100.00;101993.03;5109879;28;20697;-61
2022/12/06 00:39:15;;;;;;;22.70;13.95;;;;;;;4.54;100.00;101990.16;5108564;28;20051;-62
2022/12/06 00:41:41;;;;;;;21.90;13.48;;;;;;;4.52;100.00;101984.88;5106754;28;20048;-61
2022/12/06 00:44:07;;;;;;;21.45;14.10;;;;;;;4.51;100.00;101976.88;5110257;28;20031;-61
2022/12/06 00:46:34;;;;;;;24.20;14.90;;;;;;;4.50;100.00;101978.72;5108071;28;20019;-61
2022/12/06 00:49:00;;;;;;;20.05;13.18;;;;;;;4.51;100.00;101985.91;5110175;28;20024;-61
2022/12/06 00:51:28;;;;;;;21.48;14.48;;;;;;;4.50;100.00;101978.72;5110098;28;20023;-60
2022/12/06 00:53:54;;;;;;;20.58;13.00;;;;;;;4.51;100.00;101979.59;5107188;28;20502;-60
2022/12/06 00:56:19;;;;;;;19.75;13.07;;;;;;;4.50;100.00;101978.72;5108398;28;20470;-61
2022/12/06 00:58:45;;;;;;;24.55;13.35;;;;;;;4.50;100.00;101986.91;5110614;28;20034;-61
2022/12/06 01:01:22;;;;;;;20.73;12.48;;;;;;;4.52;100.00;101981.31;5110622;28;20034;-60
2022/12/06 01:03:52;;;;;;;18.50;11.93;;;;;;;4.52;100.00;101992.19;5108771;28;20035;-61
2022/12/06 01:06:21;;;;;;;19.90;12.02;;;;;;;4.52;100.00;101998.47;5108529;28;20032;-61
2022/12/06 01:08:47;;;;;;;18.15;11.52;;;;;;;4.51;100.00;101985.91;5108744;28;20023;-60
2022/12/06 01:11:14;;;;;;;18.70;11.05;;;;;;;4.52;100.00;101997.63;5108433;28;20421;-60
2022/12/06 01:13:39;;;;;;;17.83;11.05;;;;;;;4.50;100.00;101988.75;5107735;28;20035;-60
2022/12/06 01:16:09;;;;;;;19.02;11.55;;;;;;;4.52;100.00;101987.59;5109042;28;20031;-60
2022/12/06 01:18:36;;;;;;;19.05;10.82;;;;;;;4.53;100.00;101983.88;5107825;28;20020;-60
2022/12/06 01:21:13;;;;;;;17.63;10.95;;;;;;;4.55;100.00;101984.53;5108548;28;20111;-63
2022/12/06 01:23:39;;;;;;;20.33;11.40;;;;;;;4.55;100.00;101984.53;5106718;28;20031;-61
2022/12/06 01:26:06;;;;;;;20.75;11.50;;;;;;;4.57;100.00;101990.69;5107636;28;20024;-61
2022/12/06 01:28:32;;;;;;;20.60;11.93;;;;;;;4.58;100.00;101983.38;5099298;28;20110;-61
2022/12/06 01:30:57;;;;;;;24.48;12.45;;;;;;;4.58;100.00;101983.38;5109372;28;20384;-61
2022/12/06 01:33:23;;;;;;;21.77;12.48;;;;;;;4.58;100.00;101992.38;5108309;28;20027;-61
2022/12/06 01:35:48;;;;;;;21.90;12.52;;;;;;;4.59;100.00;101983.19;5108119;28;20431;-61
2022/12/06 01:38:13;;;;;;;24.02;14.30;;;;;;;4.57;100.00;101987.13;5108740;28;20036;-60
2022/12/06 01:40:44;;;;;;;27.23;14.30;;;;;;;4.58;100.00;101986.09;5107991;28;20038;-61
2022/12/06 01:43:39;;;;;;;21.75;13.02;;;;;;;4.60;100.00;101992.22;5101327;28;20147;-61
2022/12/06 01:46:10;;;;;;;22.80;13.00;;;;;;;4.58;100.00;101981.50;5107791;28;20083;-60
2022/12/06 01:48:36;;;;;;;24.00;13.15;;;;;;;4.56;100.00;101989.00;5109618;28;20046;-61
2022/12/06 01:51:03;;;;;;;23.10;12.88;;;;;;;4.56;100.00;101989.00;5109816;28;20024;-62
2022/12/06 01:53:30;;;;;;;21.92;12.40;;;;;;;4.57;100.00;101985.25;5104934;28;20053;-61
2022/12/06 01:55:55;;;;;;;22.38;12.13;;;;;;;4.55;100.00;101987.25;5106063;28;20047;-60
2022/12/06 01:58:34;;;;;;;22.23;11.82;;;;;;;4.56;100.00;101986.28;5109670;28;20386;-61
2022/12/06 02:01:00;;;;;;;22.42;13.25;;;;;;;4.56;100.00;101986.28;5108209;28;20375;-61
2022/12/06 02:03:29;;;;;;;21.52;11.77;;;;;;;4.57;100.00;101981.69;5108607;28;20027;-61
2022/12/06 02:05:55;;;;;;;20.77;12.20;;;;;;;4.57;100.00;101982.53;5107899;28;20374;-61
2022/12/06 02:08:21;;;;;;;20.02;11.98;;;;;;;4.56;100.00;101978.09;5108738;28;20035;-61
2022/12/06 02:10:46;;;;;;;18.80;11.38;;;;;;;4.57;100.00;101982.53;5106226;28;20390;-61
2022/12/06 02:13:12;;;;;;;19.75;11.25;;;;;;;4.58;100.00;101986.09;5106428;28;20108;-60
2022/12/06 02:16:15;;;;;;;21.20;11.07;;;;;;;4.59;100.00;101983.19;5107249;28;20028;-60
2022/12/06 02:18:49;;;;;;;20.00;11.65;;;;;;;4.56;100.00;101980.81;5090963;28;20028;-60
2022/12/06 02:21:25;;;;;;;18.13;11.20;;;;;;;4.55;100.00;101984.53;5107229;28;20020;-61
2022/12/06 02:24:36;;;;;;;20.58;10.93;;;;;;;4.59;100.00;101980.47;5097692;28;20031;-61
2022/12/06 02:27:16;;;;;;;19.15;11.20;;;;;;;4.57;100.00;101984.41;5097431;28;20140;-62
2022/12/06 02:29:59;;;;;;;23.40;11.32;;;;;;;4.55;100.00;101987.25;5108625;28;20366;-61
2022/12/06 02:32:41;;;;;;;20.23;11.10;;;;;;;4.54;100.00;101982.84;5105102;28;20430;-61
2022/12/06 02:35:28;;;;;;;17.98;10.05;;;;;;;4.54;100.00;101980.13;5101010;28;20028;-61
2022/12/06 02:38:12;;;;;;;20.33;11.43;;;;;;;4.53;100.00;101977.56;5105309;28;20042;-60
2022/12/06 02:40:44;;;;;;;20.55;10.30;;;;;;;4.53;100.00;101972.13;5104156;28;20051;-59
2022/12/06 02:43:17;;;;;;;18.73;10.38;;;;;;;4.50;100.00;101967.84;5106535;28;20032;-60
2022/12/06 02:45:47;;;;;;;18.77;10.65;;;;;;;4.50;100.00;101970.56;5107563;28;20024;-61
2022/12/06 02:48:14;;;;;;;19.10;10.95;;;;;;;4.49;100.00;101968.88;5103262;28;20551;-61
2022/12/06 02:50:47;;;;;;;18.33;10.85;;;;;;;4.48;100.00;101966.31;5087335;28;20112;-61
2022/12/06 02:53:17;;;;;;;19.65;10.50;;;;;;;4.48;100.00;101966.31;5107186;28;20108;-60
2022/12/06 02:55:44;;;;;;;20.30;10.43;;;;;;;4.48;100.00;101959.00;5104850;28;20032;-61
2022/12/06 02:58:09;;;;;;;19.00;10.27;;;;;;;4.48;100.00;101964.47;5108029;28;20374;-60
2022/12/06 03:00:40;;;;;;;20.95;10.77;;;;;;;4.48;100.00;101953.56;5107636;28;20039;-61
2022/12/06 03:03:35;;;;;;;20.15;10.32;;;;;;;4.48;100.00;101959.00;5103709;28;20073;-60
2022/12/06 03:06:00;;;;;;;18.95;10.82;;;;;;;4.48;100.00;101963.59;5104772;28;20504;-60
2022/12/06 03:08:35;;;;;;;22.00;11.02;;;;;;;4.48;100.00;101967.19;5104231;28;20019;-60
2022/12/06 03:11:01;;;;;;;24.60;12.35;;;;;;;4.48;100.00;101966.31;5103816;28;20039;-61
2022/12/06 03:13:42;;;;;;;22.05;10.88;;;;;;;4.46;100.00;101961.06;5107999;28;20030;-61
2022/12/06 03:16:16;;;;;;;22.98;11.40;;;;;;;4.48;100.00;101964.47;5087735;28;20067;-61
2022/12/06 03:18:48;;;;;;;21.33;11.55;;;;;;;4.45;100.00;101964.78;5104898;28;20020;-61
2022/12/06 03:21:20;;;;;;;21.15;11.23;;;;;;;4.46;100.00;101971.94;5089253;28;20023;-60
2022/12/06 03:23:49;;;;;;;20.08;11.85;;;;;;;4.47;100.00;101973.63;5106966;28;20027;-61
2022/12/06 03:26:21;;;;;;;25.00;12.25;;;;;;;4.49;100.00;101971.59;5102771;28;20024;-61
2022/12/06 03:28:49;;;;;;;25.45;12.57;;;;;;;4.49;100.00;101970.75;5099510;28;20026;-61
2022/12/06 03:31:15;;;;;;;22.88;12.60;;;;;;;4.48;100.00;101966.31;5106814;28;20028;-61
2022/12/06 03:33:47;;;;;;;26.02;11.88;;;;;;;4.48;100.00;101971.78;5107061;28;20465;-61
2022/12/06 03:36:15;;;;;;;23.20;12.20;;;;;;;4.46;100.00;101966.50;5106588;28;20448;-60
2022/12/06 03:38:55;;;;;;;23.98;11.63;;;;;;;4.48;100.00;101969.03;5105299;28;20020;-61
2022/12/06 03:41:25;;;;;;;26.17;13.07;;;;;;;4.49;100.00;101976.19;5107223;28;20035;-61
2022/12/06 03:43:51;;;;;;;20.80;11.73;;;;;;;4.48;100.00;101969.91;5102213;28;20051;-60
2022/12/06 03:46:22;;;;;;;22.90;11.90;;;;;;;4.49;100.00;101968.88;5105747;28;20045;-61
2022/12/06 03:48:52;;;;;;;24.70;12.68;;;;;;;4.46;100.00;101966.50;5107673;28;20019;-61
2022/12/06 03:51:27;;;;;;;25.33;12.55;;;;;;;4.46;100.00;101968.34;5108268;28;20024;-61
2022/12/06 03:53:56;;;;;;;24.90;11.93;;;;;;;4.46;100.00;101968.34;5107997;28;20087;-61
2022/12/06 03:56:22;;;;;;;27.83;12.55;;;;;;;4.47;100.00;101964.63;5108643;28;20497;-61
2022/12/06 03:58:47;;;;;;;24.63;13.23;;;;;;;4.47;100.00;101972.78;5110880;28;20032;-61
2022/12/06 04:01:13;;;;;;;28.15;13.55;;;;;;;4.46;100.00;101962.91;5111634;28;20042;-61
2022/12/06 04:03:38;;;;;;;24.48;12.30;;;;;;;4.45;100.00;101964.78;5110709;28;20446;-61
2022/12/06 04:06:05;;;;;;;26.20;12.77;;;;;;;4.46;100.00;101969.22;5110203;28;20036;-61
2022/12/06 04:08:31;;;;;;;25.88;11.82;;;;;;;4.46;100.00;101965.63;5108543;28;20499;-61
2022/12/06 04:10:56;;;;;;;26.67;12.43;;;;;;;4.48;100.00;101963.59;5109653;28;20031;-61
2022/12/06 04:13:21;;;;;;;22.05;12.57;;;;;;;4.49;100.00;101968.88;5111135;28;20028;-61
2022/12/06 04:15:47;;;;;;;24.40;12.77;;;;;;;4.47;100.00;101961.91;5109984;28;20204;-61
2022/12/06 04:18:13;;;;;;;24.33;12.57;;;;;;;4.48;100.00;101961.75;5109783;28;20023;-61
2022/12/06 04:23:36;;;;;;;31.63;13.95;;;;;;;4.48;100.00;101960.88;5110240;28;20050;-60
2022/12/06 04:26:03;;;;;;;26.52;14.18;;;;;;;4.47;100.00;101961.91;5109492;28;20031;-62
2022/12/06 04:39:25;;;;;;;25.77;11.90;;;;;;;4.51;100.00;101966.88;5110076;28;20501;-61
2022/12/06 04:44:35;;;;;;;32.90;11.60;;;;;;;4.51;100.00;101964.13;5109622;28;20043;-61
2022/12/06 04:47:01;;;;;;;26.67;13.18;;;;;;;4.50;100.00;101962.41;5108037;28;20027;-61
2022/12/06 04:49:26;;;;;;;21.67;11.30;;;;;;;4.50;100.00;101967.00;5110234;28;20035;-61
2022/12/06 04:51:53;;;;;;;27.65;11.30;;;;;;;4.49;100.00;101966.16;5110756;28;20438;-61
2022/12/06 04:54:19;;;;;;;27.00;11.27;;;;;;;4.48;100.00;101959.00;5109000;28;20042;-61
2022/12/06 04:56:44;;;;;;;23.35;11.23;;;;;;;4.48;100.00;101959.00;5109366;28;20054;-61
2022/12/06 04:59:09;;;;;;;23.10;11.32;;;;;;;4.49;100.00;101958.00;5109024;28;20023;-62
2022/12/06 05:01:35;;;;;;;25.77;10.73;;;;;;;4.49;100.00;101966.16;5110733;28;20454;-61
2022/12/06 05:04:00;;;;;;;24.02;10.27;;;;;;;4.49;100.00;101962.59;5109941;28;20038;-61
2022/12/06 05:06:25;;;;;;;21.27;10.25;;;;;;;4.48;100.00;101959.00;5107326;28;20024;-61
2022/12/06 05:08:51;;;;;;;27.65;10.30;;;;;;;4.47;100.00;101956.47;5108382;28;20411;-60
2022/12/06 05:11:16;;;;;;;21.15;9.93;;;;;;;4.45;100.00;101959.34;5106109;28;20024;-61
2022/12/06 05:13:41;;;;;;;20.48;10.55;;;;;;;4.46;100.00;101960.19;5109378;28;20030;-61
2022/12/06 05:16:08;;;;;;;23.27;10.23;;;;;;;4.42;100.00;101955.09;5106061;28;20032;-61
2022/12/06 05:18:33;;;;;;;19.80;10.20;;;;;;;4.42;100.00;101956.97;5107312;28;20430;-62
2022/12/06 05:21:12;;;;;;;25.98;11.00;;;;;;;4.42;100.00;101954.22;5108566;28;20114;-61
2022/12/06 05:23:38;;;;;;;21.95;10.55;;;;;;;4.40;100.00;101953.53;5108802;28;20023;-61
2022/12/06 05:26:06;;;;;;;23.90;10.23;;;;;;;4.40;100.00;101956.25;5105945;28;20032;-61
2022/12/06 05:28:31;;;;;;;;;;;;;;;4.45;100.00;101950.31;5110675;28;20035;-63
2022/12/06 05:30:57;;;;;;;22.10;10.40;;;;;;;4.40;100.00;101959.81;5107925;28;20441;-60
2022/12/06 05:33:23;;;;;;;19.95;9.38;;;;;;;4.39;100.00;101960.00;5109514;28;20036;-61
2022/12/06 05:35:49;;;;;;;18.60;9.57;;;;;;;4.38;100.00;101950.13;5109044;28;20034;-60
2022/12/06 05:38:15;;;;;;;21.58;10.13;;;;;;;4.37;100.00;101953.88;5102556;28;20027;-61
2022/12/06 05:40:42;;;;;;;21.63;9.82;;;;;;;4.36;100.00;101955.75;5093787;28;20040;-60
2022/12/06 05:43:07;;;;;;;20.65;10.45;;;;;;;4.36;100.00;101954.91;5109141;28;20517;-61
2022/12/06 05:45:33;;;;;;;19.50;9.38;;;;;;;4.35;100.00;101958.59;5107939;28;20020;-61
2022/12/06 05:47:58;;;;;;;22.63;9.80;;;;;;;4.36;100.00;101960.34;5105368;28;20047;-60
2022/12/06 05:50:24;;;;;;;21.83;9.88;;;;;;;4.34;100.00;101951.47;5107960;28;20031;-61
2022/12/06 05:52:57;;;;;;;24.13;9.55;;;;;;;4.35;100.00;101956.72;5107871;28;20110;-60
2022/12/06 05:55:22;;;;;;;19.67;9.27;;;;;;;4.36;100.00;101960.34;5106586;28;20033;-61
2022/12/06 05:57:48;;;;;;;23.73;9.70;;;;;;;4.34;100.00;101963.19;5107131;28;20378;-61
2022/12/06 06:00:14;;;;;;;18.10;8.85;;;;;;;4.35;100.00;101958.59;5107479;28;20501;-60
2022/12/06 06:02:40;;;;;;;18.10;9.25;;;;;;;4.35;100.00;101969.47;5107737;28;20031;-61
2022/12/06 06:05:06;;;;;;;22.65;9.45;;;;;;;4.33;100.00;101963.38;5106778;28;20047;-60
2022/12/06 06:07:31;;;;;;;18.10;9.57;;;;;;;4.33;100.00;101964.22;5105920;28;20034;-63
2022/12/06 06:09:56;;;;;;;19.00;9.07;;;;;;;4.34;100.00;101962.34;5106350;28;20020;-61
2022/12/06 06:12:22;;;;;;;20.50;11.13;;;;;;;4.33;100.00;101964.22;5089363;28;20114;-60
2022/12/06 06:14:47;;;;;;;18.38;11.00;;;;;;;4.32;100.00;101961.66;5106823;28;20019;-61
2022/12/06 06:17:12;;;;;;;17.25;8.30;;;;;;;4.30;100.00;101969.13;5103708;28;20081;-61
2022/12/06 06:19:38;;;;;;;19.23;8.50;;;;;;;4.26;100.00;101957.72;5107312;28;20027;-61
2022/12/06 06:22:03;;;;;;;16.52;8.02;;;;;;;4.23;100.00;101963.47;5106895;28;20166;-60
2022/12/06 06:24:37;;;;;;;17.42;8.32;;;;;;;4.22;100.00;101955.50;5106612;28;20035;-60
2022/12/06 06:27:03;;;;;;;18.45;8.30;;;;;;;4.17;100.00;101958.69;5105119;28;20145;-61
2022/12/06 06:29:29;;;;;;;14.18;8.13;;;;;;;4.16;100.00;101974.16;5108918;28;20164;-61
2022/12/06 06:31:55;;;;;;;16.90;7.63;;;;;;;4.16;100.00;101970.59;5108159;28;20370;-60
2022/12/06 06:34:20;;;;;;;18.77;8.50;;;;;;;4.12;100.00;101961.91;5108240;28;20019;-61
2022/12/06 06:36:45;;;;;;;17.75;8.40;;;;;;;4.10;100.00;101966.63;5107515;28;20031;-61
2022/12/06 06:39:10;;;;;;;17.00;8.77;;;;;;;4.10;100.00;101957.63;5106676;28;20526;-61
2022/12/06 06:41:36;;;;;;;16.50;8.00;;;;;;;4.09;100.00;101954.06;5106511;28;20550;-61
2022/12/06 06:44:02;;;;;;;17.40;8.25;;;;;;;4.08;100.00;101957.78;5107486;28;20027;-62
2022/12/06 06:46:27;;;;;;;15.77;8.05;;;;;;;4.07;100.00;101961.53;5106601;28;20032;-61
2022/12/06 06:48:52;;;;;;;17.38;7.57;;;;;;;4.06;100.00;101959.84;5107659;28;20055;-60
2022/12/06 06:51:18;;;;;;;16.63;7.35;;;;;;;4.05;100.00;101957.25;5108483;28;20043;-60
2022/12/06 06:53:43;;;;;;;14.23;7.15;;;;;;;4.02;100.00;101954.88;5106760;28;20168;-61
2022/12/06 06:56:08;;;;;;;13.90;7.90;;;;;;;3.96;100.00;101950.94;5106230;28;20039;-61
2022/12/06 06:58:34;;;;;;;13.45;7.55;;;;;;;3.92;100.00;101960.41;5108040;28;20031;-61
2022/12/06 07:01:04;;;;;;;16.63;8.05;;;;;;;3.88;100.00;101948.16;5106118;28;20026;-62
2022/12/06 07:03:30;;;;;;;17.65;8.55;;;;;;;3.85;100.00;101962.03;5106854;28;20027;-60
2022/12/06 07:05:59;;;;;;;18.42;8.10;;;;;;;3.83;100.00;101958.66;5107702;28;20035;-61
2022/12/06 07:08:26;;;;;;;13.85;8.00;;;;;;;3.81;100.00;101957.97;5107710;28;20024;-61
2022/12/06 07:10:53;;;;;;;18.52;8.50;;;;;;;3.83;100.00;101958.66;5106510;28;20030;-61
2022/12/06 07:13:20;;;;;;;14.85;6.97;;;;;;;3.84;100.00;101954.91;5105694;28;20470;-60
2022/12/06 07:15:45;;;;;;;16.02;7.82;;;;;;;3.84;100.00;101954.91;5107897;28;20027;-60
2022/12/06 07:18:11;;;;;;;17.75;7.45;;;;;;;3.84;100.00;101954.91;5089522;28;20028;-61
2022/12/06 07:20:36;;;;;;;17.30;7.00;;;;;;;3.83;100.00;101958.66;5107787;28;20603;-61
2022/12/06 07:23:01;;;;;;;12.15;6.55;;;;;;;3.84;100.00;101961.19;5106204;28;20378;-62
2022/12/06 07:25:27;;;;;;;16.02;7.40;;;;;;;3.86;100.00;101969.22;5105790;28;20089;-62
2022/12/06 07:27:52;;;;;;;12.70;7.18;;;;;;;3.87;100.00;101960.88;5108475;28;20383;-61
2022/12/06 07:30:18;;;;;;;16.48;7.43;;;;;;;3.89;100.00;101958.00;5111555;28;20019;-60
2022/12/06 07:32:43;;;;;;;14.32;6.82;;;;;;;3.89;100.00;101950.69;5111602;28;20023;-61
2022/12/06 07:35:08;;;;;;;17.33;7.07;;;;;;;3.93;100.00;101959.41;5110515;28;20035;-61
2022/12/06 07:37:34;;;;;;;13.48;6.63;;;;;;;3.92;100.00;101965.84;5093945;28;20078;-61
2022/12/06 07:39:59;;;;;;;15.82;6.38;;;;;;;3.92;100.00;101963.13;5109563;28;20508;-59
2022/12/06 07:45:11;;;;;;;11.88;6.03;;;;;;;3.88;100.00;101964.47;5110622;28;20089;-61
2022/12/06 07:47:41;;;;;;;12.45;6.30;;;;;;;3.89;100.00;101969.72;5111162;28;20024;-62
2022/12/06 07:50:10;;;;;;;15.13;6.18;;;;;;;3.89;100.00;101975.16;5111288;28;20015;-61
2022/12/06 07:52:36;;;;;;;13.82;5.80;;;;;;;3.90;100.00;101970.56;5111939;28;20028;-61
2022/12/06 07:55:03;;;;;;;13.05;6.53;;;;;;;3.92;100.00;101973.16;5110029;28;20019;-63
2022/12/06 07:57:28;;;;;;;11.68;6.32;;;;;;;3.93;100.00;101978.41;5111872;28;20130;-62
2022/12/06 07:59:54;;;;;;;14.93;6.07;;;;;;;3.95;100.00;101972.81;5110535;28;20517;-61
2022/12/06 08:02:21;;;;;;;14.88;6.30;;;;;;;3.98;100.00;101977.94;5111505;28;20028;-61
2022/12/06 08:04:47;;;;;;;13.18;6.10;;;;;;;4.01;100.00;101977.63;5108960;28;20019;-61
2022/12/06 08:07:12;;;;;;;11.95;6.75;;;;;;;4.02;100.00;101980.19;5111518;28;20032;-61
2022/12/06 08:09:38;;;;;;;16.20;6.15;;;;;;;4.02;100.00;101974.75;5110171;28;20434;-61
2022/12/06 08:12:04;;;;;;;12.43;6.00;;;;;;;4.05;100.00;101976.28;5108882;28;20481;-61
2022/12/06 08:14:29;;;;;;;9.32;5.63;;;;;;;4.06;100.00;101975.28;5093284;28;20055;-61
2022/12/06 08:16:54;;;;;;;12.18;6.22;;;;;;;4.05;100.00;101979.84;5110602;28;20419;-61
2022/12/06 08:19:20;;;;;;;11.32;5.57;;;;;;;4.07;100.00;101975.13;5111011;28;20877;-61
2022/12/06 08:21:45;;;;;;;12.75;5.68;;;;;;;4.09;100.00;101970.38;5109553;28;20027;-62
2022/12/06 08:24:11;;;;;;;11.32;5.88;;;;;;;4.10;100.00;101977.50;5106416;28;21749;-61
2022/12/06 08:26:36;;;;;;;9.25;5.32;;;;;;;4.10;100.00;101977.50;5111096;28;20023;-61
2022/12/06 08:29:02;;;;;;;11.43;6.00;;;;;;;4.05;100.00;101973.56;5110265;28;20019;-63
2022/12/06 08:31:29;;;;;;;8.77;5.20;;;;;;;3.98;100.00;101981.50;5110187;28;20381;-61
2022/12/06 08:33:55;;;;;;;13.50;5.65;;;;;;;3.89;100.00;101977.03;5110573;28;20026;-61
2022/12/06 08:36:22;;;;;;;12.30;5.45;;;;;;;3.80;100.00;101973.41;5110472;28;20027;-61
2022/12/06 08:38:48;;;;;;;9.80;5.40;;;;;;;3.73;100.00;101980.47;5109782;28;20059;-60
2022/12/06 08:43:59;;;;;;;11.15;5.30;;;;;;;3.56;100.00;101984.09;5110246;28;20092;-61
2022/12/06 08:46:26;;;;;;;11.13;4.77;;;;;;;3.51;100.00;101994.56;5110549;28;20026;-60
2022/12/06 08:48:51;;;;;;;10.70;5.43;;;;;;;3.42;100.00;101993.63;5110047;28;20277;-61
2022/12/06 08:51:17;;;;;;;11.13;5.88;;;;;;;3.37;100.00;101993.25;5109267;28;20790;-61
2022/12/06 08:53:42;;;;;;;11.40;6.03;;;;;;;3.30;100.00;101995.75;5109558;28;20026;-61
2022/12/06 08:56:08;;;;;;;11.30;6.07;;;;;;;3.28;100.00;101999.59;5108072;28;20028;-61
2022/12/06 08:58:33;;;;;;;10.80;6.38;;;;;;;3.26;100.00;101996.19;5109490;28;20039;-61
2022/12/06 09:00:59;;;;;;;11.60;6.53;;;;;;;3.32;100.00;102007.28;5105441;28;20111;-61
2022/12/06 09:03:24;;;;;;;13.50;6.40;;;;;;;3.53;100.00;101996.09;5089756;28;20386;-61
2022/12/06 09:05:50;;;;;;;9.80;5.75;;;;;;;3.78;100.00;101993.59;5110180;28;20027;-61
2022/12/06 09:08:15;;;;;;;10.15;6.03;;;;;;;3.79;100.00;101998.88;5109935;28;20019;-62
2022/12/06 09:10:42;;;;;;;12.23;5.45;;;;;;;3.77;100.00;102003.63;5107114;28;20381;-61
2022/12/06 09:13:08;;;;;;;10.00;5.50;;;;;;;3.87;100.00;102004.38;5110502;28;20039;-62
2022/12/06 09:15:33;;;;;;;10.95;6.60;;;;;;;4.07;100.00;102005.03;5106957;28;20385;-61
2022/12/06 09:17:59;;;;;;;12.27;7.65;;;;;;;4.32;100.00;102003.31;5108615;28;20027;-61
2022/12/06 09:20:24;;;;;;;13.98;10.00;;;;;;;4.71;100.00;102004.66;5110509;28;20023;-61
2022/12/06 09:22:49;;;;;;;14.60;8.27;;;;;;;5.01;100.00;102001.38;5108192;28;20127;-61
2022/12/06 09:25:14;;;;;;;12.52;6.78;;;;;;;5.21;100.00;101997.34;5106566;28;20042;-61
2022/12/06 09:27:40;;;;;;;11.27;6.15;;;;;;;5.20;100.00;101998.34;5106019;28;20082;-60
2022/12/06 09:30:06;;;;;;;11.75;5.60;;;;;;;5.21;100.00;102001.94;5110009;28;20526;-61
2022/12/06 09:32:31;;;;;;;10.20;5.32;;;;;;;5.30;100.00;102010.97;5110518;28;20485;-62
2022/12/06 09:34:56;;;;;;;10.57;5.68;;;;;;;5.55;100.00;102006.41;5102897;28;20016;-60
2022/12/06 09:37:22;;;;;;;13.13;6.03;;;;;;;5.89;100.00;102006.25;5093684;28;20383;-61
2022/12/06 09:39:52;;;;;;;11.13;5.60;;;;;;;6.19;100.00;102000.09;5099659;28;20031;-62
2022/12/06 09:42:47;;;;;;;11.98;5.13;;;;;;;6.51;100.00;102001.03;5093950;28;20440;-61
2022/12/06 09:45:28;;;;;;;10.13;5.40;;;;;;;6.68;100.00;101999.94;5101738;28;20398;-61
2022/12/06 09:48:23;;;;;;;9.60;4.97;;;;;;;6.82;100.00;101997.50;5100803;28;20077;-61
2022/12/06 09:51:06;;;;;;;9.93;5.00;;;;;;;7.08;100.00;102000.75;5103702;28;20032;-61
2022/12/06 09:54:01;;;;;;;9.40;4.40;;;;;;;7.83;100.00;102000.06;5093415;28;20028;-61
2022/12/06 09:56:50;;;;;;;10.30;4.18;;;;;;;8.80;94.97;101998.19;5084263;28;20473;-61
2022/12/06 09:59:44;;;;;;;8.68;4.25;;;;;;;9.82;88.57;101987.03;5093880;28;20410;-60
2022/12/06 10:02:21;;;;;;;7.32;3.88;;;;;;;11.14;83.17;101973.25;5099594;28;20500;-61
2022/12/06 10:04:55;;;;;;;6.88;4.03;;;;;;;11.98;73.06;101976.59;5098725;28;20062;-61
2022/12/06 10:07:26;;;;;;;8.73;4.25;;;;;;;12.91;71.96;101977.22;5092448;28;20546;-61
2022/12/06 10:10:28;;;;;;;7.15;3.58;;;;;;;13.93;72.33;101973.41;5089662;28;20062;-66
2022/12/06 10:12:58;;;;;;;7.70;3.47;;;;;;;14.92;61.88;101979.84;5093287;28;20039;-63
2022/12/06 10:15:39;;;;;;;8.05;3.75;;;;;;;15.22;64.98;101976.25;5103994;28;20034;-62
2022/12/06 10:18:29;;;;;;;5.15;3.00;;;;;;;15.16;59.67;101974.44;5100174;28;20020;-61
2022/12/06 10:21:19;;;;;;;6.85;3.17;;;;;;;15.50;59.42;101973.69;5088394;28;20119;-61
2022/12/06 10:23:59;;;;;;;6.53;3.33;;;;;;;15.98;60.15;101978.31;5106717;28;20028;-61
2022/12/06 10:26:32;;;;;;;7.88;3.90;;;;;;;16.17;58.38;101980.97;5108487;28;20031;-61
2022/12/06 10:29:18;;;;;;;6.13;2.97;;;;;;;16.38;58.55;101983.16;5108207;28;20110;-61
2022/12/06 10:31:59;;;;;;;7.22;3.25;;;;;;;16.52;57.63;101984.56;5106324;28;20027;-62
2022/12/06 10:34:50;;;;;;;7.63;4.13;;;;;;;17.09;54.01;101979.19;5097350;28;20015;-61
2022/12/06 10:37:46;;;;;;;6.13;3.25;;;;;;;17.33;55.94;101979.06;5094258;28;20035;-61
2022/12/06 10:40:22;;;;;;;7.65;3.40;;;;;;;17.37;51.60;101983.88;5100399;28;20054;-61
2022/12/06 10:43:08;;;;;;;5.80;3.03;;;;;;;17.94;52.41;101974.63;5098600;28;20023;-60
2022/12/06 10:48:47;;;;;;;5.30;2.70;;;;;;;18.03;50.20;101972.28;5095385;28;20069;-60
2022/12/06 10:51:29;;;;;;;7.72;2.85;;;;;;;17.42;52.49;101977.59;5087384;28;20020;-60
2022/12/06 10:54:00;;;;;;;7.00;3.25;;;;;;;17.25;49.42;101972.00;5092273;28;20180;-63
2022/12/06 10:56:30;;;;;;;7.32;4.20;;;;;;;17.38;48.73;101976.38;5087217;28;20493;-60
2022/12/06 10:59:04;;;;;;;8.45;4.00;;;;;;;17.58;48.02;101960.09;5091543;28;20024;-61
2022/12/06 11:01:38;;;;;;;7.13;3.10;;;;;;;17.57;49.17;101968.69;5099657;28;20024;-60
2022/12/06 11:04:11;;;;;;;5.85;3.50;;;;;;;17.48;48.97;101964.63;5092862;28;20058;-61
2022/12/06 11:06:48;;;;;;;6.47;3.50;;;;;;;17.87;48.87;101969.25;5093080;28;20024;-61
2022/12/06 11:09:19;;;;;;;7.22;3.65;;;;;;;18.01;45.58;101964.22;5093489;28;20060;-60
2022/12/06 11:11:47;;;;;;;6.82;3.28;;;;;;;18.11;44.48;101969.09;5095255;28;20051;-59
2022/12/06 11:14:40;;;;;;;7.05;3.60;;;;;;;18.61;49.92;101963.44;5107139;28;20019;-60
2022/12/06 11:17:22;;;;;;;5.72;3.83;;;;;;;18.99;46.91;101964.50;5104724;28;20047;-60
2022/12/06 11:20:34;;;;;;;6.43;3.60;;;;;;;19.12;47.78;101963.28;5104763;28;20036;-60
2022/12/06 11:23:09;;;;;;;5.63;3.30;;;;;;;18.37;43.74;101967.53;5107492;28;20020;-60
2022/12/06 11:26:03;;;;;;;5.97;2.60;;;;;;;17.14;49.89;101964.56;5107311;28;20019;-63
2022/12/06 11:28:39;;;;;;;6.13;2.78;;;;;;;16.06;49.45;101957.69;5087610;28;20036;-60
2022/12/06 11:31:24;;;;;;;7.43;3.15;;;;;;;14.79;53.78;101966.16;5092330;28;20028;-61
2022/12/06 11:33:49;;;;;;;7.03;3.08;;;;;;;14.41;52.63;101958.94;5107463;28;20049;-61
2022/12/06 11:36:15;;;;;;;7.05;2.72;;;;;;;14.02;53.31;101968.44;5105798;28;20032;-60
2022/12/06 11:38:42;;;;;;;7.93;3.80;;;;;;;12.82;56.48;101960.06;5105409;28;20023;-61
2022/12/06 11:41:16;;;;;;;5.80;3.20;;;;;;;12.31;60.41;101962.78;5106511;28;20051;-61
2022/12/06 11:43:41;;;;;;;8.68;3.50;;;;;;;12.40;59.40;101956.81;5101397;28;20474;-60
2022/12/06 11:46:09;;;;;;;7.90;3.38;;;;;;;12.12;59.52;101959.00;5106429;28;20081;-60
2022/12/06 11:48:35;;;;;;;5.15;3.00;;;;;;;11.72;59.78;101956.25;5104560;28;20091;-61
2022/12/06 11:51:01;;;;;;;4.25;2.60;;;;;;;11.42;60.52;101953.88;5105821;28;20487;-60
2022/12/06 11:53:35;;;;;;;7.10;2.90;;;;;;;11.90;61.03;101956.47;5103505;28;20024;-61